createdAt,value
2022-09-01T00:00:23.976Z,31.92
2022-09-01T00:00:53.973Z,31.94
2022-09-01T00:01:23.969Z,31.91
2022-09-01T00:01:54.091Z,31.92
2022-09-01T00:02:24.131Z,31.94
2022-09-01T00:02:54.284Z,31.95
2022-09-01T00:03:24.180Z,31.92
2022-09-01T00:03:54.382Z,31.94
2022-09-01T00:04:24.401Z,31.95
2022-09-01T00:04:54.426Z,31.92
2022-09-01T00:05:24.667Z,31.92
2022-09-01T00:05:54.541Z,31.91
2022-09-01T00:06:24.534Z,31.92
2022-09-01T00:06:54.530Z,31.92
2022-09-01T00:07:24.526Z,31.94
2022-09-01T00:07:54.648Z,31.94
2022-09-01T00:08:24.765Z,31.94
2022-09-01T00:08:54.764Z,31.92
2022-09-01T00:09:24.762Z,31.94
2022-09-01T00:09:54.875Z,31.91
2022-09-01T00:10:24.882Z,31.94
2022-09-01T00:10:54.878Z,31.92
2022-09-01T00:11:24.999Z,31.92
2022-09-01T00:11:54.996Z,31.92
2022-09-01T00:12:25.118Z,31.92
2022-09-01T00:12:55.110Z,31.89
2022-09-01T00:13:25.106Z,31.92
2022-09-01T00:13:55.101Z,31.94
2022-09-01T00:14:30.516Z,31.92
2022-09-01T00:14:55.237Z,31.94
2022-09-01T00:15:25.308Z,31.91
2022-09-01T00:15:55.338Z,31.94
2022-09-01T00:16:25.323Z,31.92
2022-09-01T00:16:55.319Z,31.92
2022-09-01T00:17:25.441Z,31.92
2022-09-01T00:17:55.439Z,31.92
2022-09-01T00:18:25.559Z,31.92
2022-09-01T00:18:55.679Z,31.92
2022-09-01T00:19:25.795Z,31.92
2022-09-01T00:19:55.789Z,31.92
2022-09-01T00:20:25.799Z,31.91
2022-09-01T00:20:55.794Z,31.92
2022-09-01T00:21:25.788Z,31.91
2022-09-01T00:21:55.786Z,31.92
2022-09-01T00:22:25.788Z,31.92
2022-09-01T00:22:55.793Z,31.91
2022-09-01T00:23:25.910Z,31.91
2022-09-01T00:23:56.031Z,31.92
2022-09-01T00:24:26.230Z,31.91
2022-09-01T00:24:56.119Z,31.91
2022-09-01T00:25:26.239Z,31.91
2022-09-01T00:25:56.233Z,31.89
2022-09-01T00:26:26.233Z,31.91
2022-09-01T00:26:56.349Z,31.88
2022-09-01T00:27:27.892Z,31.91
2022-09-01T00:27:56.473Z,31.91
2022-09-01T00:28:27.489Z,31.89
2022-09-01T00:28:56.591Z,31.89
2022-09-01T00:29:26.681Z,31.88
2022-09-01T00:29:56.760Z,31.89
2022-09-01T00:30:26.857Z,31.89
2022-09-01T00:30:57.027Z,31.89
2022-09-01T00:31:27.019Z,31.89
2022-09-01T00:31:56.985Z,31.92
2022-09-01T00:32:27.068Z,31.89
2022-09-01T00:32:57.156Z,31.92
2022-09-01T00:33:27.237Z,31.91
2022-09-01T00:33:57.317Z,31.91
2022-09-01T00:34:27.413Z,31.91
2022-09-01T00:34:57.495Z,31.89
2022-09-01T00:35:27.575Z,31.91
2022-09-01T00:35:57.658Z,31.88
2022-09-01T00:36:27.745Z,31.91
2022-09-01T00:36:57.826Z,31.89
2022-09-01T00:37:27.904Z,31.89
2022-09-01T00:37:57.987Z,31.91
2022-09-01T00:38:28.090Z,31.89
2022-09-01T00:38:58.185Z,31.88
2022-09-01T00:39:28.184Z,31.89
2022-09-01T00:39:58.184Z,31.87
2022-09-01T00:40:28.289Z,31.91
2022-09-01T00:40:58.283Z,31.89
2022-09-01T00:41:28.281Z,31.87
2022-09-01T00:41:58.276Z,31.89
2022-09-01T00:42:28.274Z,31.88
2022-09-01T00:42:58.273Z,31.88
2022-09-01T00:43:28.394Z,31.89
2022-09-01T00:43:58.389Z,31.88
2022-09-01T00:44:29.627Z,31.88
2022-09-01T00:44:58.508Z,31.88
2022-09-01T00:45:28.516Z,31.89
2022-09-01T00:45:58.594Z,31.88
2022-09-01T00:46:29.226Z,31.85
2022-09-01T00:46:58.754Z,31.88
2022-09-01T00:47:28.760Z,31.85
2022-09-01T00:47:58.757Z,31.87
2022-09-01T00:48:28.876Z,31.88
2022-09-01T00:48:58.994Z,31.87
2022-09-01T00:49:28.996Z,31.88
2022-09-01T00:49:59.068Z,31.88
2022-09-01T00:50:29.190Z,31.85
2022-09-01T00:50:59.186Z,31.87
2022-09-01T00:51:29.183Z,31.88
2022-09-01T00:51:59.302Z,31.89
2022-09-01T00:52:29.298Z,31.89
2022-09-01T00:52:59.294Z,31.87
2022-09-01T00:53:29.299Z,31.89
2022-09-01T00:53:59.302Z,31.87
2022-09-01T00:54:29.323Z,31.88
2022-09-01T00:54:59.317Z,31.88
2022-09-01T00:55:29.441Z,31.88
2022-09-01T00:55:59.435Z,31.88
2022-09-01T00:56:29.431Z,31.87
2022-09-01T00:56:59.550Z,31.88
2022-09-01T00:57:29.547Z,31.88
2022-09-01T00:57:59.541Z,31.88
2022-09-01T00:58:29.661Z,31.89
2022-09-01T00:58:59.655Z,31.88
2022-09-01T00:59:29.682Z,31.87
2022-09-01T00:59:59.675Z,31.87
2022-09-01T01:00:29.794Z,31.87
2022-09-01T01:00:59.851Z,31.87
2022-09-01T01:01:29.888Z,31.89
2022-09-01T01:01:59.858Z,31.87
2022-09-01T01:02:30.052Z,31.87
2022-09-01T01:03:00.117Z,31.87
2022-09-01T01:03:30.107Z,31.87
2022-09-01T01:04:00.109Z,31.84
2022-09-01T01:04:30.114Z,31.88
2022-09-01T01:05:00.112Z,31.85
2022-09-01T01:05:30.106Z,31.85
2022-09-01T01:06:00.225Z,31.84
2022-09-01T01:06:30.825Z,31.87
2022-09-01T01:07:00.377Z,31.85
2022-09-01T01:07:30.378Z,31.87
2022-09-01T01:08:00.493Z,31.87
2022-09-01T01:08:30.614Z,31.85
2022-09-01T01:09:00.608Z,31.85
2022-09-01T01:09:30.750Z,31.85
2022-09-01T01:10:00.748Z,31.87
2022-09-01T01:10:30.866Z,31.83
2022-09-01T01:11:00.858Z,31.85
2022-09-01T01:11:30.977Z,31.87
2022-09-01T01:12:00.974Z,31.85
2022-09-01T01:12:31.100Z,31.83
2022-09-01T01:13:01.217Z,31.84
2022-09-01T01:13:31.213Z,31.85
2022-09-01T01:14:01.209Z,31.87
2022-09-01T01:14:31.349Z,31.85
2022-09-01T01:15:01.335Z,31.84
2022-09-01T01:15:31.332Z,31.85
2022-09-01T01:16:01.449Z,31.87
2022-09-01T01:16:31.633Z,31.85
2022-09-01T01:17:01.694Z,31.84
2022-09-01T01:17:31.670Z,31.81
2022-09-01T01:18:01.785Z,31.84
2022-09-01T01:18:31.787Z,31.83
2022-09-01T01:19:01.781Z,31.85
2022-09-01T01:19:34.751Z,31.83
2022-09-01T01:20:01.934Z,31.81
2022-09-01T01:20:31.931Z,31.85
2022-09-01T01:21:02.047Z,31.81
2022-09-01T01:21:32.167Z,31.81
2022-09-01T01:22:02.285Z,31.83
2022-09-01T01:22:32.406Z,31.83
2022-09-01T01:23:02.522Z,31.83
2022-09-01T01:23:32.519Z,31.83
2022-09-01T01:24:02.515Z,31.81
2022-09-01T01:24:32.673Z,31.81
2022-09-01T01:25:02.669Z,31.83
2022-09-01T01:25:32.666Z,31.83
2022-09-01T01:26:02.660Z,31.83
2022-09-01T01:26:32.658Z,31.83
2022-09-01T01:27:02.653Z,31.84
2022-09-01T01:27:32.773Z,31.83
2022-09-01T01:28:02.790Z,31.83
2022-09-01T01:28:32.787Z,31.81
2022-09-01T01:29:02.875Z,31.81
2022-09-01T01:29:32.969Z,31.80
2022-09-01T01:30:03.050Z,31.83
2022-09-01T01:30:33.167Z,31.83
2022-09-01T01:31:03.289Z,31.83
2022-09-01T01:31:33.243Z,31.81
2022-09-01T01:32:03.328Z,31.81
2022-09-01T01:32:33.405Z,31.80
2022-09-01T01:33:03.511Z,31.81
2022-09-01T01:33:33.573Z,31.81
2022-09-01T01:34:03.658Z,31.84
2022-09-01T01:34:33.742Z,31.83
2022-09-01T01:35:03.840Z,31.78
2022-09-01T01:35:33.920Z,31.81
2022-09-01T01:36:04.000Z,31.81
2022-09-01T01:36:34.078Z,31.80
2022-09-01T01:37:04.161Z,31.81
2022-09-01T01:37:34.243Z,31.84
2022-09-01T01:38:04.325Z,31.81
2022-09-01T01:38:34.413Z,31.83
2022-09-01T01:39:04.521Z,31.78
2022-09-01T01:39:34.652Z,31.83
2022-09-01T01:40:04.696Z,31.81
2022-09-01T01:40:34.730Z,31.81
2022-09-01T01:41:04.762Z,31.81
2022-09-01T01:41:34.879Z,31.81
2022-09-01T01:42:04.876Z,31.81
2022-09-01T01:42:34.994Z,31.81
2022-09-01T01:43:05.128Z,31.80
2022-09-01T01:43:35.235Z,31.80
2022-09-01T01:44:05.232Z,31.80
2022-09-01T01:44:35.357Z,31.81
2022-09-01T01:45:05.468Z,31.83
2022-09-01T01:45:35.465Z,31.80
2022-09-01T01:46:05.626Z,31.80
2022-09-01T01:46:35.599Z,31.80
2022-09-01T01:47:05.597Z,31.77
2022-09-01T01:47:35.591Z,31.78
2022-09-01T01:48:05.708Z,31.80
2022-09-01T01:48:35.709Z,31.80
2022-09-01T01:49:05.706Z,31.80
2022-09-01T01:49:35.831Z,31.80
2022-09-01T01:50:05.826Z,31.78
2022-09-01T01:50:36.084Z,31.80
2022-09-01T01:51:06.059Z,31.81
2022-09-01T01:51:36.166Z,31.78
2022-09-01T01:52:08.183Z,31.78
2022-09-01T01:52:36.171Z,31.80
2022-09-01T01:53:11.494Z,31.81
2022-09-01T01:53:36.268Z,31.78
2022-09-01T01:54:06.266Z,31.78
2022-09-01T01:54:36.403Z,31.80
2022-09-01T01:55:06.398Z,31.75
2022-09-01T01:55:36.396Z,31.77
2022-09-01T01:56:06.406Z,31.80
2022-09-01T01:56:36.514Z,31.80
2022-09-01T01:57:06.523Z,31.78
2022-09-01T01:57:36.511Z,31.80
2022-09-01T01:58:06.630Z,31.78
2022-09-01T01:58:36.625Z,31.78
2022-09-01T01:59:06.630Z,31.80
2022-09-01T01:59:36.669Z,31.78
2022-09-01T02:00:06.664Z,31.77
2022-09-01T02:00:36.661Z,31.78
2022-09-01T02:01:06.731Z,31.77
2022-09-01T02:01:36.807Z,31.78
2022-09-01T02:02:06.928Z,31.80
2022-09-01T02:02:36.944Z,31.77
2022-09-01T02:03:06.915Z,31.80
2022-09-01T02:03:36.913Z,31.78
2022-09-01T02:04:06.916Z,31.78
2022-09-01T02:04:36.909Z,31.77
2022-09-01T02:05:06.909Z,31.78
2022-09-01T02:05:36.906Z,31.77
2022-09-01T02:06:06.900Z,31.78
2022-09-01T02:06:36.900Z,31.77
2022-09-01T02:07:06.894Z,31.75
2022-09-01T02:07:37.013Z,31.77
2022-09-01T02:08:07.005Z,31.80
2022-09-01T02:08:37.141Z,31.78
2022-09-01T02:09:07.136Z,31.77
2022-09-01T02:09:37.260Z,31.77
2022-09-01T02:10:07.253Z,31.78
2022-09-01T02:10:37.248Z,31.78
2022-09-01T02:11:07.370Z,31.75
2022-09-01T02:11:37.373Z,31.75
2022-09-01T02:12:07.379Z,31.78
2022-09-01T02:12:37.502Z,31.78
2022-09-01T02:13:07.499Z,31.75
2022-09-01T02:13:37.533Z,31.77
2022-09-01T02:14:07.526Z,31.78
2022-09-01T02:14:37.523Z,31.77
2022-09-01T02:15:07.524Z,31.75
2022-09-01T02:15:37.533Z,31.77
2022-09-01T02:16:07.532Z,31.77
2022-09-01T02:16:37.579Z,31.80
2022-09-01T02:17:07.718Z,31.77
2022-09-01T02:17:37.595Z,31.77
2022-09-01T02:18:07.596Z,31.78
2022-09-01T02:18:37.597Z,31.78
2022-09-01T02:19:07.587Z,31.78
2022-09-01T02:19:37.582Z,31.78
2022-09-01T02:20:07.706Z,31.75
2022-09-01T02:20:37.707Z,31.77
2022-09-01T02:21:07.707Z,31.77
2022-09-01T02:21:37.821Z,31.78
2022-09-01T02:22:07.822Z,31.75
2022-09-01T02:22:37.819Z,31.78
2022-09-01T02:23:07.821Z,31.77
2022-09-01T02:23:37.813Z,31.77
2022-09-01T02:24:07.817Z,31.78
2022-09-01T02:24:37.812Z,31.75
2022-09-01T02:25:07.813Z,31.74
2022-09-01T02:25:49.302Z,31.75
2022-09-01T02:26:16.980Z,31.77
2022-09-01T02:26:37.864Z,31.75
2022-09-01T02:27:07.861Z,31.75
2022-09-01T02:27:37.859Z,31.74
2022-09-01T02:28:07.852Z,31.73
2022-09-01T02:28:37.855Z,31.74
2022-09-01T02:29:07.941Z,31.74
2022-09-01T02:29:43.207Z,31.73
2022-09-01T02:30:08.138Z,31.71
2022-09-01T02:30:38.282Z,31.74
2022-09-01T02:31:08.384Z,31.74
2022-09-01T02:31:38.458Z,31.75
2022-09-01T02:32:08.542Z,31.75
2022-09-01T02:32:38.621Z,31.74
2022-09-01T02:33:08.707Z,31.75
2022-09-01T02:33:38.798Z,31.74
2022-09-01T02:34:08.883Z,31.75
2022-09-01T02:34:38.967Z,31.74
2022-09-01T02:35:09.058Z,31.75
2022-09-01T02:35:39.161Z,31.74
2022-09-01T02:36:09.249Z,31.74
2022-09-01T02:36:39.335Z,31.74
2022-09-01T02:37:09.421Z,31.74
2022-09-01T02:37:39.502Z,31.73
2022-09-01T02:38:09.584Z,31.74
2022-09-01T02:38:39.671Z,31.73
2022-09-01T02:39:09.785Z,31.74
2022-09-01T02:39:39.786Z,31.74
2022-09-01T02:40:09.968Z,31.75
2022-09-01T02:40:40.083Z,31.74
2022-09-01T02:41:09.951Z,31.73
2022-09-01T02:41:39.948Z,31.73
2022-09-01T02:42:10.067Z,31.71
2022-09-01T02:42:40.063Z,31.73
2022-09-01T02:43:10.066Z,31.75
2022-09-01T02:43:40.057Z,31.68
2022-09-01T02:44:10.180Z,31.74
2022-09-01T02:44:41.426Z,31.73
2022-09-01T02:45:10.249Z,31.73
2022-09-01T02:45:40.302Z,31.71
2022-09-01T02:46:10.380Z,31.74
2022-09-01T02:46:40.360Z,31.73
2022-09-01T02:47:10.354Z,31.74
2022-09-01T02:47:40.349Z,31.73
2022-09-01T02:48:10.544Z,31.73
2022-09-01T02:48:40.500Z,31.73
2022-09-01T02:49:10.497Z,31.71
2022-09-01T02:49:40.613Z,31.74
2022-09-01T02:50:10.733Z,31.71
2022-09-01T02:50:40.765Z,31.71
2022-09-01T02:51:10.772Z,31.73
2022-09-01T02:51:40.881Z,31.71
2022-09-01T02:52:11.010Z,31.74
2022-09-01T02:52:41.000Z,31.71
2022-09-01T02:53:10.999Z,31.73
2022-09-01T02:53:40.997Z,31.73
2022-09-01T02:54:11.117Z,31.71
2022-09-01T02:54:41.114Z,31.70
2022-09-01T02:55:11.110Z,31.71
2022-09-01T02:55:41.130Z,31.70
2022-09-01T02:56:11.122Z,31.73
2022-09-01T02:56:41.119Z,31.70
2022-09-01T02:57:11.117Z,31.71
2022-09-01T02:57:41.238Z,31.71
2022-09-01T02:58:11.284Z,31.71
2022-09-01T02:58:41.300Z,31.71
2022-09-01T02:59:11.306Z,31.71
2022-09-01T02:59:43.811Z,31.70
2022-09-01T03:00:11.324Z,31.70
2022-09-01T03:00:41.344Z,31.70
2022-09-01T03:01:11.393Z,31.70
2022-09-01T03:01:41.421Z,31.70
2022-09-01T03:02:11.481Z,31.68
2022-09-01T03:02:41.459Z,31.68
2022-09-01T03:03:11.579Z,31.68
2022-09-01T03:03:41.578Z,31.70
2022-09-01T03:04:11.698Z,31.70
2022-09-01T03:04:41.834Z,31.68
2022-09-01T03:05:11.885Z,31.68
2022-09-01T03:05:41.889Z,31.68
2022-09-01T03:06:11.885Z,31.70
2022-09-01T03:06:41.889Z,31.70
2022-09-01T03:07:12.009Z,31.68
2022-09-01T03:07:42.008Z,31.70
2022-09-01T03:08:12.028Z,31.68
2022-09-01T03:08:42.040Z,31.71
2022-09-01T03:09:12.042Z,31.71
2022-09-01T03:09:42.044Z,31.68
2022-09-01T03:10:12.166Z,31.68
2022-09-01T03:10:42.182Z,31.67
2022-09-01T03:11:13.213Z,31.68
2022-09-01T03:11:42.195Z,31.68
2022-09-01T03:12:12.195Z,31.68
2022-09-01T03:12:42.189Z,31.68
2022-09-01T03:13:12.195Z,31.68
2022-09-01T03:13:42.223Z,31.67
2022-09-01T03:14:12.223Z,31.67
2022-09-01T03:14:42.214Z,31.68
2022-09-01T03:15:12.313Z,31.70
2022-09-01T03:15:42.271Z,31.68
2022-09-01T03:16:12.379Z,31.68
2022-09-01T03:16:42.396Z,31.67
2022-09-01T03:17:12.373Z,31.65
2022-09-01T03:17:42.371Z,31.65
2022-09-01T03:18:12.423Z,31.67
2022-09-01T03:18:42.397Z,31.67
2022-09-01T03:19:12.399Z,31.65
2022-09-01T03:19:42.516Z,31.68
2022-09-01T03:20:12.516Z,31.67
2022-09-01T03:20:42.511Z,31.65
2022-09-01T03:21:12.514Z,31.64
2022-09-01T03:21:42.510Z,31.65
2022-09-01T03:22:12.509Z,31.67
2022-09-01T03:22:42.514Z,31.65
2022-09-01T03:23:12.512Z,31.65
2022-09-01T03:23:42.511Z,31.68
2022-09-01T03:24:12.516Z,31.67
2022-09-01T03:24:42.520Z,31.67
2022-09-01T03:25:12.514Z,31.67
2022-09-01T03:25:42.513Z,31.67
2022-09-01T03:26:12.509Z,31.67
2022-09-01T03:26:42.508Z,31.65
2022-09-01T03:27:12.504Z,31.65
2022-09-01T03:27:42.627Z,31.68
2022-09-01T03:28:12.739Z,31.67
2022-09-01T03:28:42.738Z,31.65
2022-09-01T03:29:12.823Z,31.64
2022-09-01T03:29:42.911Z,31.65
2022-09-01T03:30:12.993Z,31.67
2022-09-01T03:30:43.078Z,31.64
2022-09-01T03:31:13.171Z,31.63
2022-09-01T03:31:43.347Z,31.64
2022-09-01T03:32:13.398Z,31.64
2022-09-01T03:32:43.353Z,31.63
2022-09-01T03:33:13.438Z,31.65
2022-09-01T03:33:43.519Z,31.63
2022-09-01T03:34:13.606Z,31.63
2022-09-01T03:34:43.688Z,31.65
2022-09-01T03:35:13.767Z,31.61
2022-09-01T03:35:43.867Z,31.60
2022-09-01T03:36:15.127Z,31.60
2022-09-01T03:36:44.065Z,31.60
2022-09-01T03:37:14.159Z,31.56
2022-09-01T03:37:44.287Z,31.59
2022-09-01T03:38:14.365Z,31.57
2022-09-01T03:38:44.453Z,31.54
2022-09-01T03:39:16.756Z,31.54
2022-09-01T03:39:44.476Z,31.56
2022-09-01T03:40:14.540Z,31.54
2022-09-01T03:40:44.553Z,31.57
2022-09-01T03:41:14.575Z,31.54
2022-09-01T03:41:44.568Z,31.57
2022-09-01T03:42:14.571Z,31.57
2022-09-01T03:42:44.564Z,31.57
2022-09-01T03:43:14.567Z,31.56
2022-09-01T03:43:47.020Z,31.59
2022-09-01T03:44:14.655Z,31.57
2022-09-01T03:44:44.650Z,31.57
2022-09-01T03:45:14.725Z,31.56
2022-09-01T03:45:44.891Z,31.56
2022-09-01T03:46:14.929Z,31.57
2022-09-01T03:46:44.924Z,31.59
2022-09-01T03:47:15.036Z,31.59
2022-09-01T03:47:45.041Z,31.56
2022-09-01T03:48:15.041Z,31.59
2022-09-01T03:48:45.158Z,31.59
2022-09-01T03:49:15.172Z,31.57
2022-09-01T03:49:45.159Z,31.59
2022-09-01T03:50:15.156Z,31.61
2022-09-01T03:50:45.153Z,31.59
2022-09-01T03:51:15.153Z,31.60
2022-09-01T03:51:45.417Z,31.60
2022-09-01T03:52:15.271Z,31.57
2022-09-01T03:52:45.268Z,31.59
2022-09-01T03:53:15.273Z,31.57
2022-09-01T03:53:45.265Z,31.59
2022-09-01T03:54:15.263Z,31.57
2022-09-01T03:54:45.391Z,31.61
2022-09-01T03:55:15.380Z,31.63
2022-09-01T03:55:45.381Z,31.60
2022-09-01T03:56:15.500Z,31.63
2022-09-01T03:56:45.510Z,31.64
2022-09-01T03:57:15.525Z,31.60
2022-09-01T03:57:45.570Z,31.63
2022-09-01T03:58:15.614Z,31.63
2022-09-01T03:58:45.628Z,31.64
2022-09-01T03:59:15.631Z,31.61
2022-09-01T03:59:45.628Z,31.59
2022-09-01T04:00:15.747Z,31.57
2022-09-01T04:00:48.895Z,31.54
2022-09-01T04:01:16.054Z,31.53
2022-09-01T04:01:45.885Z,31.48
2022-09-01T04:02:15.939Z,31.48
2022-09-01T04:02:45.923Z,31.44
2022-09-01T04:03:15.970Z,31.40
2022-09-01T04:03:45.964Z,31.37
2022-09-01T04:04:15.965Z,31.34
2022-09-01T04:04:45.963Z,31.32
2022-09-01T04:05:15.959Z,31.29
2022-09-01T04:05:45.952Z,31.23
2022-09-01T04:06:16.069Z,31.25
2022-09-01T04:06:46.064Z,31.23
2022-09-01T04:07:19.394Z,31.22
2022-09-01T04:07:46.183Z,31.16
2022-09-01T04:08:16.207Z,31.19
2022-09-01T04:08:46.180Z,31.16
2022-09-01T04:09:16.177Z,31.15
2022-09-01T04:09:46.174Z,31.15
2022-09-01T04:10:16.294Z,31.15
2022-09-01T04:10:46.288Z,31.11
2022-09-01T04:11:16.400Z,31.08
2022-09-01T04:11:46.511Z,31.08
2022-09-01T04:12:16.495Z,31.05
2022-09-01T04:12:46.486Z,31.01
2022-09-01T04:13:16.608Z,30.99
2022-09-01T04:13:46.605Z,30.99
2022-09-01T04:14:16.602Z,30.95
2022-09-01T04:14:46.723Z,30.91
2022-09-01T04:15:16.838Z,30.92
2022-09-01T04:15:46.957Z,30.91
2022-09-01T04:16:17.289Z,30.92
2022-09-01T04:16:47.235Z,30.89
2022-09-01T04:17:17.256Z,30.92
2022-09-01T04:17:47.372Z,30.89
2022-09-01T04:18:17.500Z,30.92
2022-09-01T04:18:47.500Z,30.92
2022-09-01T04:19:17.619Z,30.89
2022-09-01T04:19:47.616Z,30.85
2022-09-01T04:20:17.616Z,30.84
2022-09-01T04:20:47.697Z,30.84
2022-09-01T04:21:17.696Z,30.82
2022-09-01T04:21:47.690Z,30.81
2022-09-01T04:22:17.804Z,30.81
2022-09-01T04:22:47.798Z,30.79
2022-09-01T04:23:17.917Z,30.79
2022-09-01T04:23:48.035Z,30.81
2022-09-01T04:24:18.032Z,30.81
2022-09-01T04:24:48.151Z,30.79
2022-09-01T04:25:18.265Z,30.77
2022-09-01T04:25:48.270Z,30.77
2022-09-01T04:26:18.264Z,30.75
2022-09-01T04:26:48.261Z,30.75
2022-09-01T04:27:18.458Z,30.78
2022-09-01T04:27:48.310Z,30.79
2022-09-01T04:28:18.362Z,30.78
2022-09-01T04:28:48.398Z,30.79
2022-09-01T04:29:57.911Z,30.74
2022-09-01T04:30:27.474Z,30.75
2022-09-01T04:30:57.559Z,30.75
2022-09-01T04:31:27.696Z,30.74
2022-09-01T04:31:57.802Z,30.74
2022-09-01T04:32:27.781Z,30.73
2022-09-01T04:32:57.861Z,30.68
2022-09-01T04:33:27.941Z,30.68
2022-09-01T04:33:58.024Z,30.66
2022-09-01T04:34:28.115Z,30.63
2022-09-01T04:34:58.197Z,30.61
2022-09-01T04:35:28.281Z,30.64
2022-09-01T04:35:58.365Z,30.60
2022-09-01T04:36:28.467Z,30.60
2022-09-01T04:36:58.553Z,30.58
2022-09-01T04:37:28.671Z,30.53
2022-09-01T04:37:58.631Z,30.51
2022-09-01T04:38:28.715Z,30.47
2022-09-01T04:38:58.795Z,30.48
2022-09-01T04:39:28.882Z,30.46
2022-09-01T04:39:58.883Z,30.43
2022-09-01T04:40:29.046Z,30.40
2022-09-01T04:40:59.010Z,30.43
2022-09-01T04:41:29.009Z,30.37
2022-09-01T04:41:59.003Z,30.41
2022-09-01T04:42:29.292Z,30.37
2022-09-01T04:42:59.072Z,30.36
2022-09-01T04:43:29.070Z,30.34
2022-09-01T04:43:59.068Z,30.31
2022-09-01T04:44:29.183Z,30.31
2022-09-01T04:44:59.183Z,30.33
2022-09-01T04:45:29.272Z,30.31
2022-09-01T04:45:59.329Z,30.31
2022-09-01T04:46:29.318Z,30.33
2022-09-01T04:46:59.325Z,30.33
2022-09-01T04:47:29.339Z,30.34
2022-09-01T04:47:59.334Z,30.33
2022-09-01T04:48:29.575Z,30.37
2022-09-01T04:48:59.385Z,30.36
2022-09-01T04:49:29.509Z,30.36
2022-09-01T04:49:59.510Z,30.31
2022-09-01T04:50:29.520Z,30.33
2022-09-01T04:50:59.515Z,30.30
2022-09-01T04:51:29.513Z,30.29
2022-09-01T04:51:59.517Z,30.30
2022-09-01T04:52:29.531Z,30.30
2022-09-01T04:52:59.541Z,30.33
2022-09-01T04:53:29.673Z,30.34
2022-09-01T04:53:59.694Z,30.37
2022-09-01T04:54:29.710Z,30.37
2022-09-01T04:54:59.715Z,30.39
2022-09-01T04:55:29.724Z,30.36
2022-09-01T04:55:59.759Z,30.33
2022-09-01T04:56:29.760Z,30.34
2022-09-01T04:56:59.759Z,30.34
2022-09-01T04:57:30.057Z,30.36
2022-09-01T04:57:59.923Z,30.34
2022-09-01T04:58:30.044Z,30.34
2022-09-01T04:59:00.065Z,30.37
2022-09-01T04:59:30.044Z,30.36
2022-09-01T05:00:00.187Z,30.39
2022-09-01T05:00:30.175Z,30.36
2022-09-01T05:01:00.285Z,30.34
2022-09-01T05:01:30.266Z,30.37
2022-09-01T05:02:00.422Z,30.23
2022-09-01T05:02:30.443Z,30.26
2022-09-01T05:03:00.473Z,30.29
2022-09-01T05:03:30.483Z,30.33
2022-09-01T05:04:00.485Z,30.27
2022-09-01T05:04:30.493Z,30.30
2022-09-01T05:05:00.497Z,30.33
2022-09-01T05:05:30.496Z,30.33
2022-09-01T05:06:00.494Z,30.34
2022-09-01T05:06:30.626Z,30.36
2022-09-01T05:07:00.638Z,30.37
2022-09-01T05:07:30.640Z,30.43
2022-09-01T05:08:00.784Z,30.41
2022-09-01T05:08:32.761Z,30.44
2022-09-01T05:09:00.853Z,30.41
2022-09-01T05:09:30.856Z,30.40
2022-09-01T05:10:01.552Z,30.33
2022-09-01T05:10:30.979Z,30.34
2022-09-01T05:11:00.974Z,30.31
2022-09-01T05:11:30.983Z,30.34
2022-09-01T05:12:00.998Z,30.30
2022-09-01T05:12:31.006Z,30.30
2022-09-01T05:13:01.137Z,30.02
2022-09-01T05:13:31.156Z,30.01
2022-09-01T05:14:01.147Z,30.13
2022-09-01T05:14:31.265Z,29.68
2022-09-01T05:15:01.282Z,29.88
2022-09-01T05:15:31.417Z,29.98
2022-09-01T05:16:01.437Z,29.96
2022-09-01T05:16:31.496Z,29.99
2022-09-01T05:17:01.497Z,29.95
2022-09-01T05:17:31.492Z,29.96
2022-09-01T05:18:01.488Z,29.98
2022-09-01T05:18:31.483Z,29.99
2022-09-01T05:19:01.475Z,30.01
2022-09-01T05:19:31.594Z,30.06
2022-09-01T05:20:01.715Z,30.06
2022-09-01T05:20:31.709Z,30.06
2022-09-01T05:21:01.700Z,30.06
2022-09-01T05:21:31.819Z,30.02
2022-09-01T05:22:01.819Z,30.06
2022-09-01T05:22:31.936Z,30.09
2022-09-01T05:23:02.047Z,30.08
2022-09-01T05:23:32.163Z,29.96
2022-09-01T05:24:02.157Z,30.05
2022-09-01T05:24:32.173Z,30.12
2022-09-01T05:25:02.269Z,30.06
2022-09-01T05:25:32.265Z,30.01
2022-09-01T05:26:02.384Z,30.05
2022-09-01T05:26:32.560Z,30.05
2022-09-01T05:27:02.481Z,30.03
2022-09-01T05:27:32.480Z,30.02
2022-09-01T05:28:02.469Z,30.08
2022-09-01T05:28:32.582Z,30.15
2022-09-01T05:29:02.700Z,30.18
2022-09-01T05:29:32.691Z,30.20
2022-09-01T05:30:02.780Z,30.23
2022-09-01T05:30:32.852Z,30.26
2022-09-01T05:31:02.960Z,30.27
2022-09-01T05:31:33.126Z,30.26
2022-09-01T05:32:03.055Z,30.29
2022-09-01T05:32:33.147Z,30.18
2022-09-01T05:33:03.221Z,30.11
2022-09-01T05:33:33.299Z,30.19
2022-09-01T05:34:03.402Z,30.19
2022-09-01T05:34:33.461Z,30.19
2022-09-01T05:35:03.533Z,30.22
2022-09-01T05:35:33.616Z,30.20
2022-09-01T05:36:03.710Z,30.20
2022-09-01T05:36:33.883Z,30.23
2022-09-01T05:37:03.828Z,30.20
2022-09-01T05:37:33.914Z,30.20
2022-09-01T05:38:03.992Z,30.24
2022-09-01T05:38:34.072Z,30.24
2022-09-01T05:39:04.156Z,30.27
2022-09-01T05:39:34.250Z,30.30
2022-09-01T05:40:04.306Z,30.29
2022-09-01T05:40:34.409Z,30.31
2022-09-01T05:41:04.459Z,30.31
2022-09-01T05:41:34.460Z,30.30
2022-09-01T05:42:04.461Z,30.33
2022-09-01T05:42:34.457Z,30.33
2022-09-01T05:43:04.453Z,30.34
2022-09-01T05:43:34.567Z,30.36
2022-09-01T05:44:04.685Z,30.33
2022-09-01T05:44:34.690Z,30.34
2022-09-01T05:45:04.802Z,30.31
2022-09-01T05:45:56.295Z,30.34
2022-09-01T05:46:07.202Z,30.33
2022-09-01T05:46:34.952Z,30.31
2022-09-01T05:47:05.002Z,30.29
2022-09-01T05:47:35.013Z,30.30
2022-09-01T05:48:05.010Z,30.29
2022-09-01T05:48:35.008Z,30.27
2022-09-01T05:49:05.000Z,30.22
2022-09-01T05:49:35.121Z,30.20
2022-09-01T05:50:05.128Z,30.20
2022-09-01T05:50:35.123Z,30.19
2022-09-01T05:51:05.253Z,30.16
2022-09-01T05:51:44.219Z,29.96
2022-09-01T05:52:05.268Z,29.99
2022-09-01T05:52:35.266Z,29.95
2022-09-01T05:53:05.260Z,29.95
2022-09-01T05:53:35.276Z,29.99
2022-09-01T05:54:05.271Z,30.01
2022-09-01T05:54:35.346Z,30.03
2022-09-01T05:55:05.467Z,30.05
2022-09-01T05:55:35.480Z,30.03
2022-09-01T05:56:05.590Z,30.03
2022-09-01T05:56:36.126Z,30.03
2022-09-01T05:57:30.202Z,30.06
2022-09-01T05:57:35.882Z,30.09
2022-09-01T05:58:05.855Z,30.08
2022-09-01T05:59:35.879Z,30.11
2022-09-01T06:00:05.869Z,30.05
2022-09-01T06:00:35.961Z,30.05
2022-09-01T06:01:06.086Z,30.03
2022-09-01T06:01:36.061Z,30.02
2022-09-01T06:02:06.158Z,30.05
2022-09-01T06:02:36.225Z,30.05
2022-09-01T06:03:06.294Z,30.02
2022-09-01T06:03:38.518Z,30.02
2022-09-01T06:04:06.283Z,30.03
2022-09-01T06:04:36.275Z,30.03
2022-09-01T06:05:06.404Z,30.08
2022-09-01T06:05:36.388Z,30.12
2022-09-01T06:06:06.577Z,30.15
2022-09-01T06:06:48.923Z,30.19
2022-09-01T06:07:08.566Z,30.19
2022-09-01T06:07:36.600Z,30.24
2022-09-01T06:08:06.596Z,30.26
2022-09-01T06:08:36.594Z,30.27
2022-09-01T06:09:06.712Z,30.30
2022-09-01T06:09:36.706Z,30.31
2022-09-01T06:10:06.708Z,30.30
2022-09-01T06:10:36.820Z,30.33
2022-09-01T06:11:06.952Z,30.31
2022-09-01T06:11:36.949Z,30.34
2022-09-01T06:12:07.111Z,30.37
2022-09-01T06:12:37.158Z,30.40
2022-09-01T06:13:07.146Z,30.37
2022-09-01T06:13:37.238Z,30.40
2022-09-01T06:14:07.236Z,30.41
2022-09-01T06:14:37.231Z,30.47
2022-09-01T06:15:07.348Z,30.47
2022-09-01T06:15:37.345Z,30.48
2022-09-01T06:16:07.442Z,30.53
2022-09-01T06:16:37.494Z,30.57
2022-09-01T06:17:07.502Z,30.58
2022-09-01T06:17:37.500Z,30.58
2022-09-01T06:18:07.495Z,30.60
2022-09-01T06:18:37.490Z,30.63
2022-09-01T06:19:07.487Z,30.67
2022-09-01T06:19:37.606Z,30.67
2022-09-01T06:20:07.601Z,30.70
2022-09-01T06:20:37.720Z,30.70
2022-09-01T06:21:07.854Z,30.71
2022-09-01T06:21:37.844Z,30.74
2022-09-01T06:22:07.963Z,30.74
2022-09-01T06:22:38.017Z,30.75
2022-09-01T06:23:08.032Z,30.79
2022-09-01T06:23:38.064Z,30.82
2022-09-01T06:24:08.067Z,30.81
2022-09-01T06:24:38.194Z,30.73
2022-09-01T06:25:08.193Z,30.70
2022-09-01T06:25:38.190Z,30.74
2022-09-01T06:26:08.323Z,30.79
2022-09-01T06:26:38.314Z,30.81
2022-09-01T06:27:08.317Z,30.77
2022-09-01T06:27:38.324Z,30.81
2022-09-01T06:28:08.319Z,30.81
2022-09-01T06:28:38.312Z,30.84